PLYK1: Cottonwood River, Plymouth, KS

                                SHEF ID:       PLYK1     COTTONWOOD R NR PLYMOUTH, KS
STATION TYPE:
Regulating: Stage = 28.00, Flow = 11215

PRECIP STAGE STAGE(2) RIV-FLOW BAT-LOAD
in ft ft cfs volt
Ccp-Rev Ccp-Rev Ccp-Rev Ccp-Rev Ccp-Rev
(America/Chicago)
12/02 00:00 0.00 6.13 ---- 752 12.43
12/02 01:00 0.00 6.06 ---- 738 12.42
12/02 02:00 0.00 5.95 ---- 715 12.40
12/02 03:00 0.00 5.83 ---- 691 12.40
12/02 04:00 0.00 5.70 ---- 665 12.40
12/02 05:00 0.00 5.57 ---- 640 12.39
12/02 06:00 0.00 5.44 ---- 615 12.37
12/02 07:00 0.00 5.32 ---- 592 12.37
12/02 08:00 0.00 5.20 ---- 570 12.38
12/02 09:00 0.00 5.09 ---- 550 12.40
12/02 10:00 0.00 4.98 ---- 530 12.40
12/02 11:00 0.00 4.88 ---- 512 12.46
12/02 12:00 0.00 4.79 ---- 497 12.47
12/02 13:00 0.00 4.71 ---- 483 12.56
12/02 14:00 0.00 4.63 ---- 470 12.52
12/02 15:00 0.01 4.55 ---- 456 12.46
12/02 16:00 0.00 4.48 ---- 445 12.44
12/02 17:00 0.00 4.41 ---- 433 12.44
12/02 18:00 0.00 4.35 ---- 424 12.44
12/02 19:00 0.00 4.30 ---- 416 12.44
12/02 20:00 0.00 4.25 ---- 408 12.44
12/02 21:00 0.00 4.20 ---- 400 12.44
12/02 22:00 0.00 4.16 ---- 394 12.44
12/02 23:00 0.00 4.13 ---- 389 12.44
Data processed at Sun 03Dec2023 05:19 GMT

Parsing this webpage?

Checkout our new Data API! CWMSDataAPI (CDA)

All information presented herein is the property of the government of the United States of America and may be revised or deleted at any time without prior notice. Dissemination of this information without the expressed written consent of the Public Affairs Office, Tulsa District U.S. Army Corps of Engineers is strictly prohibited. These data are gathered electronically and, as presented, have NOT undergone any form of quality control. These data are NOT guaranteed to be valid or correct.